PWSweather.com
Personal Weather Stations
Station Observations
COONRAPIDS
Minneapolis, MN 55433

Minneapolis, MN 55433

Lat: 45.187721, Lon: -93.36828

Elevation: 898

Station Type: Davis Vantage Pro 2

High Low Average
Temperature 87.8°F31.0°C 62.7°F17.1°C 74.2°F23.4°C
Dew Point 63.7°F17.6°C 55.9°F13.3°C 60.0°F15.6°C
Winds 5.8 mph 9.3 kmh Calm Calm Calm WCalm W
Wind Gusts 9.2 mph14.8 kmh -- 1.0 mph1.6 kmh
Humidity 89% 34% 65%
Pressure 30.13 in1020.3 mb 30.00 in1015.9 mb -
Precipitation 0.00 in0.0 mm - -
Hour Temp Dew Point Humidity Winds Wind Gusts Pressure Precip Precip Rate Daily Precip Total
12:00 AM 66.2°F19.0°C 59.2°F15.1°C 78% Calm Calm -- 30.12 in1020.0 mb - 0.00 in0.0 mm 0.00 in0.0 mm
12:10 AM 66.1°F18.9°C 59.0°F15.0°C 78% Calm Calm -- 30.12 in1020.0 mb - 0.00 in0.0 mm 0.00 in0.0 mm
12:20 AM 65.9°F18.8°C 59.2°F15.1°C 79% Calm Calm -- 30.12 in1020.0 mb - 0.00 in0.0 mm 0.00 in0.0 mm
12:30 AM 65.8°F18.8°C 59.1°F15.1°C 79% Calm Calm -- 30.12 in1020.0 mb - 0.00 in0.0 mm 0.00 in0.0 mm
12:40 AM 65.6°F18.7°C 59.3°F15.2°C 80% Calm Calm -- 30.12 in1020.0 mb - 0.00 in0.0 mm 0.00 in0.0 mm
12:50 AM 65.6°F18.7°C 59.3°F15.2°C 80% Calm Calm -- 30.12 in1020.0 mb - 0.00 in0.0 mm 0.00 in0.0 mm
01:00 AM 65.6°F18.7°C 59.3°F15.2°C 80% Calm Calm -- 30.12 in1020.0 mb - 0.00 in0.0 mm 0.00 in0.0 mm
01:10 AM 65.6°F18.7°C 59.6°F15.3°C 81% Calm Calm -- 30.11 in1019.6 mb - 0.00 in0.0 mm 0.00 in0.0 mm
01:20 AM 65.5°F18.6°C 59.9°F15.5°C 82% Calm Calm -- 30.11 in1019.6 mb - 0.00 in0.0 mm 0.00 in0.0 mm
01:30 AM 65.4°F18.6°C 60.1°F15.6°C 83% Calm Calm -- 30.11 in1019.6 mb - 0.00 in0.0 mm 0.00 in0.0 mm
01:40 AM 65.4°F18.6°C 60.4°F15.8°C 84% Calm Calm -- 30.11 in1019.6 mb - 0.00 in0.0 mm 0.00 in0.0 mm
01:50 AM 65.4°F18.6°C 60.4°F15.8°C 84% Calm Calm -- 30.11 in1019.6 mb - 0.00 in0.0 mm 0.00 in0.0 mm
02:00 AM 65.3°F18.5°C 60.7°F15.9°C 85% Calm Calm -- 30.11 in1019.6 mb - 0.00 in0.0 mm 0.00 in0.0 mm
02:10 AM 65.1°F18.4°C 60.5°F15.8°C 85% Calm Calm -- 30.11 in1019.6 mb - 0.00 in0.0 mm 0.00 in0.0 mm
02:20 AM 65.0°F18.3°C 60.7°F15.9°C 86% Calm Calm -- 30.11 in1019.6 mb - 0.00 in0.0 mm 0.00 in0.0 mm
02:30 AM 64.9°F18.3°C 60.6°F15.9°C 86% Calm Calm -- 30.11 in1019.6 mb - 0.00 in0.0 mm 0.00 in0.0 mm
02:40 AM 64.8°F18.2°C 60.5°F15.8°C 86% Calm Calm -- 30.11 in1019.6 mb - 0.00 in0.0 mm 0.00 in0.0 mm
02:50 AM 64.5°F18.1°C 60.3°F15.7°C 86% Calm Calm -- 30.11 in1019.6 mb - 0.00 in0.0 mm 0.00 in0.0 mm
03:00 AM 64.3°F17.9°C 60.0°F15.6°C 86% Calm Calm -- 30.11 in1019.6 mb - 0.00 in0.0 mm 0.00 in0.0 mm
03:10 AM 64.2°F17.9°C 60.2°F15.7°C 87% Calm Calm -- 30.11 in1019.6 mb - 0.00 in0.0 mm 0.00 in0.0 mm
03:20 AM 63.9°F17.7°C 60.0°F15.6°C 87% Calm Calm -- 30.11 in1019.6 mb - 0.00 in0.0 mm 0.00 in0.0 mm
03:30 AM 63.9°F17.7°C 60.0°F15.6°C 87% Calm Calm -- 30.12 in1020.0 mb - 0.00 in0.0 mm 0.00 in0.0 mm
03:40 AM 63.8°F17.7°C 59.9°F15.5°C 87% Calm Calm -- 30.11 in1019.6 mb - 0.00 in0.0 mm 0.00 in0.0 mm
03:50 AM 63.6°F17.6°C 60.0°F15.6°C 88% Calm Calm -- 30.12 in1020.0 mb - 0.00 in0.0 mm 0.00 in0.0 mm
04:00 AM 63.3°F17.4°C 59.7°F15.4°C 88% Calm Calm -- 30.12 in1020.0 mb - 0.00 in0.0 mm 0.00 in0.0 mm
04:10 AM 63.1°F17.3°C 59.5°F15.3°C 88% Calm Calm -- 30.12 in1020.0 mb - 0.00 in0.0 mm 0.00 in0.0 mm
04:20 AM 63.1°F17.3°C 59.5°F15.3°C 88% Calm Calm -- 30.12 in1020.0 mb - 0.00 in0.0 mm 0.00 in0.0 mm
04:30 AM 63.0°F17.2°C 59.4°F15.2°C 88% Calm Calm -- 30.12 in1020.0 mb - 0.00 in0.0 mm 0.00 in0.0 mm
04:40 AM 62.9°F17.2°C 59.3°F15.2°C 88% Calm Calm -- 30.12 in1020.0 mb - 0.00 in0.0 mm 0.00 in0.0 mm
04:50 AM 62.9°F17.2°C 59.3°F15.2°C 88% Calm Calm -- 30.12 in1020.0 mb - 0.00 in0.0 mm 0.00 in0.0 mm
05:00 AM 62.8°F17.1°C 59.2°F15.1°C 88% Calm Calm -- 30.12 in1020.0 mb - 0.00 in0.0 mm 0.00 in0.0 mm
05:10 AM 62.8°F17.1°C 59.2°F15.1°C 88% Calm Calm -- 30.12 in1020.0 mb - 0.00 in0.0 mm 0.00 in0.0 mm
05:20 AM 62.7°F17.1°C 59.4°F15.2°C 89% Calm Calm -- 30.12 in1020.0 mb - 0.00 in0.0 mm 0.00 in0.0 mm
05:30 AM 62.7°F17.1°C 59.5°F15.3°C 89% Calm Calm -- 30.12 in1020.0 mb - 0.00 in0.0 mm 0.00 in0.0 mm
05:40 AM 63.0°F17.2°C 59.7°F15.4°C 89% Calm Calm -- 30.12 in1020.0 mb - 0.00 in0.0 mm 0.00 in0.0 mm
05:50 AM 63.3°F17.4°C 60.0°F15.6°C 89% Calm Calm -- 30.12 in1020.0 mb - 0.00 in0.0 mm 0.00 in0.0 mm
06:00 AM 63.7°F17.6°C 60.4°F15.8°C 89% Calm Calm -- 30.12 in1020.0 mb - 0.00 in0.0 mm 0.00 in0.0 mm
06:10 AM 64.1°F17.8°C 60.8°F16.0°C 89% Calm Calm -- 30.12 in1020.0 mb - 0.00 in0.0 mm 0.00 in0.0 mm
06:20 AM 64.7°F18.2°C 61.4°F16.3°C 89% Calm Calm -- 30.12 in1020.0 mb - 0.00 in0.0 mm 0.00 in0.0 mm
06:30 AM 65.2°F18.4°C 61.9°F16.6°C 89% Calm Calm -- 30.12 in1020.0 mb - 0.00 in0.0 mm 0.00 in0.0 mm
06:40 AM 65.7°F18.7°C 62.4°F16.9°C 89% Calm Calm -- 30.12 in1020.0 mb - 0.00 in0.0 mm 0.00 in0.0 mm
06:50 AM 66.3°F19.1°C 62.9°F17.2°C 89% Calm Calm -- 30.12 in1020.0 mb - 0.00 in0.0 mm 0.00 in0.0 mm
07:00 AM 66.8°F19.3°C 63.5°F17.5°C 89% Calm Calm -- 30.12 in1020.0 mb - 0.00 in0.0 mm 0.00 in0.0 mm
07:10 AM 66.8°F19.3°C 63.5°F17.5°C 89% Calm Calm -- 30.12 in1020.0 mb - 0.00 in0.0 mm 0.00 in0.0 mm
07:20 AM 67.4°F19.7°C 63.7°F17.6°C 88% Calm Calm -- 30.12 in1020.0 mb - 0.00 in0.0 mm 0.00 in0.0 mm
07:30 AM 68.5°F20.3°C 63.4°F17.4°C 84% Calm Calm -- 30.12 in1020.0 mb - 0.00 in0.0 mm 0.00 in0.0 mm
07:40 AM 69.6°F20.9°C 62.8°F17.1°C 79% Calm Calm -- 30.12 in1020.0 mb - 0.00 in0.0 mm 0.00 in0.0 mm
07:50 AM 70.8°F21.6°C 63.6°F17.6°C 78% Calm Calm -- 30.12 in1020.0 mb - 0.00 in0.0 mm 0.00 in0.0 mm
08:00 AM 71.7°F22.1°C 61.8°F16.6°C 71% Calm Calm -- 30.12 in1020.0 mb - 0.00 in0.0 mm 0.00 in0.0 mm
08:10 AM 72.7°F22.6°C 61.5°F16.4°C 68% Calm Calm -- 30.12 in1020.0 mb - 0.00 in0.0 mm 0.00 in0.0 mm
08:20 AM 73.5°F23.1°C 61.4°F16.3°C 66% Calm Calm -- 30.12 in1020.0 mb - 0.00 in0.0 mm 0.00 in0.0 mm
08:30 AM 74.3°F23.5°C 61.3°F16.3°C 64% Calm Calm -- 30.12 in1020.0 mb - 0.00 in0.0 mm 0.00 in0.0 mm
08:40 AM 74.9°F23.8°C 61.0°F16.1°C 62% Calm Calm -- 30.12 in1020.0 mb - 0.00 in0.0 mm 0.00 in0.0 mm
08:50 AM 75.4°F24.1°C 61.4°F16.3°C 62% Calm Calm -- 30.12 in1020.0 mb - 0.00 in0.0 mm 0.00 in0.0 mm
09:00 AM 76.1°F24.5°C 61.2°F16.2°C 60% Calm Calm -- 30.12 in1020.0 mb - 0.00 in0.0 mm 0.00 in0.0 mm
09:10 AM 77.0°F25.0°C 61.1°F16.2°C 58% Calm Calm -- 30.13 in1020.3 mb - 0.00 in0.0 mm 0.00 in0.0 mm
09:20 AM 77.8°F25.4°C 59.9°F15.5°C 54% 1.2 mph WNW1.9 kmh WNW 3.5 mph5.6 kmh 30.12 in1020.0 mb - 0.00 in0.0 mm 0.00 in0.0 mm
09:30 AM 78.3°F25.7°C 59.7°F15.4°C 53% 1.2 mph WSW1.9 kmh WSW 3.5 mph5.6 kmh 30.13 in1020.3 mb - 0.00 in0.0 mm 0.00 in0.0 mm
09:40 AM 78.7°F25.9°C 61.2°F16.2°C 55% 2.3 mph W3.7 kmh W 4.6 mph7.4 kmh 30.13 in1020.3 mb - 0.00 in0.0 mm 0.00 in0.0 mm
09:50 AM 79.1°F26.2°C 58.9°F14.9°C 50% 1.2 mph WSW1.9 kmh WSW -- 30.13 in1020.3 mb - 0.00 in0.0 mm 0.00 in0.0 mm
10:00 AM 79.6°F26.4°C 61.0°F16.1°C 53% Calm Calm 3.5 mph5.6 kmh 30.13 in1020.3 mb - 0.00 in0.0 mm 0.00 in0.0 mm
10:10 AM 80.3°F26.8°C 60.5°F15.8°C 51% Calm Calm -- 30.12 in1020.0 mb - 0.00 in0.0 mm 0.00 in0.0 mm
10:20 AM 81.0°F27.2°C 61.2°F16.2°C 51% 2.3 mph W3.7 kmh W 3.5 mph5.6 kmh 30.12 in1020.0 mb - 0.00 in0.0 mm 0.00 in0.0 mm
10:30 AM 81.6°F27.6°C 61.7°F16.5°C 51% Calm Calm -- 30.11 in1019.6 mb - 0.00 in0.0 mm 0.00 in0.0 mm
10:40 AM 82.0°F27.8°C 62.6°F17.0°C 52% Calm Calm 1.2 mph1.9 kmh 30.11 in1019.6 mb - 0.00 in0.0 mm 0.00 in0.0 mm
10:50 AM 81.9°F27.7°C 60.9°F16.1°C 49% Calm Calm 1.2 mph1.9 kmh 30.11 in1019.6 mb - 0.00 in0.0 mm 0.00 in0.0 mm
11:00 AM 81.1°F27.3°C 61.3°F16.3°C 51% 1.2 mph WNW1.9 kmh WNW 3.5 mph5.6 kmh 30.11 in1019.6 mb - 0.00 in0.0 mm 0.00 in0.0 mm
11:10 AM 81.0°F27.2°C 60.6°F15.9°C 50% Calm Calm -- 30.10 in1019.3 mb - 0.00 in0.0 mm 0.00 in0.0 mm
11:20 AM 80.4°F26.9°C 61.2°F16.2°C 52% Calm Calm -- 30.10 in1019.3 mb - 0.00 in0.0 mm 0.00 in0.0 mm
11:30 AM 80.2°F26.8°C 60.4°F15.8°C 51% Calm Calm -- 30.10 in1019.3 mb - 0.00 in0.0 mm 0.00 in0.0 mm
11:40 AM 80.2°F26.8°C 61.0°F16.1°C 52% Calm Calm -- 30.09 in1019.0 mb - 0.00 in0.0 mm 0.00 in0.0 mm
11:50 AM 80.2°F26.8°C 59.9°F15.5°C 50% Calm Calm -- 30.09 in1019.0 mb - 0.00 in0.0 mm 0.00 in0.0 mm
12:00 PM 80.5°F26.9°C 59.6°F15.3°C 49% Calm Calm 1.2 mph1.9 kmh 30.09 in1019.0 mb - 0.00 in0.0 mm 0.00 in0.0 mm
12:10 PM 81.0°F27.2°C 58.3°F14.6°C 46% Calm Calm -- 30.09 in1019.0 mb - 0.00 in0.0 mm 0.00 in0.0 mm
12:20 PM 81.1°F27.3°C 58.4°F14.7°C 46% Calm Calm -- 30.09 in1019.0 mb - 0.00 in0.0 mm 0.00 in0.0 mm
12:30 PM 81.3°F27.4°C 58.5°F14.7°C 46% Calm Calm -- 30.09 in1019.0 mb - 0.00 in0.0 mm 0.00 in0.0 mm
12:40 PM 81.9°F27.7°C 58.5°F14.7°C 45% 1.2 mph NW1.9 kmh NW 2.3 mph3.7 kmh 30.08 in1018.6 mb - 0.00 in0.0 mm 0.00 in0.0 mm
12:50 PM 81.9°F27.7°C 58.5°F14.7°C 45% Calm Calm -- 30.08 in1018.6 mb - 0.00 in0.0 mm 0.00 in0.0 mm
01:00 PM 81.3°F27.4°C 60.3°F15.7°C 49% Calm Calm -- 30.08 in1018.6 mb - 0.00 in0.0 mm 0.00 in0.0 mm
01:10 PM 80.9°F27.2°C 59.9°F15.5°C 49% Calm Calm -- 30.08 in1018.6 mb - 0.00 in0.0 mm 0.00 in0.0 mm
01:20 PM 81.0°F27.2°C 60.6°F15.9°C 50% Calm Calm -- 30.07 in1018.3 mb - 0.00 in0.0 mm 0.00 in0.0 mm
01:30 PM 80.9°F27.2°C 58.1°F14.5°C 46% Calm Calm -- 30.07 in1018.3 mb - 0.00 in0.0 mm 0.00 in0.0 mm
01:40 PM 80.8°F27.1°C 58.7°F14.8°C 47% Calm Calm -- 30.07 in1018.3 mb - 0.00 in0.0 mm 0.00 in0.0 mm
01:50 PM 80.7°F27.1°C 58.6°F14.8°C 47% Calm Calm -- 30.06 in1017.9 mb - 0.00 in0.0 mm 0.00 in0.0 mm
02:00 PM 80.8°F27.1°C 59.3°F15.2°C 48% Calm Calm 1.2 mph1.9 kmh 30.06 in1017.9 mb - 0.00 in0.0 mm 0.00 in0.0 mm
02:10 PM 82.3°F27.9°C 58.2°F14.6°C 44% 1.2 mph WNW1.9 kmh WNW 3.5 mph5.6 kmh 30.06 in1017.9 mb - 0.00 in0.0 mm 0.00 in0.0 mm
02:20 PM 83.7°F28.7°C 56.8°F13.8°C 40% 2.3 mph WSW3.7 kmh WSW 3.5 mph5.6 kmh 30.06 in1017.9 mb - 0.00 in0.0 mm 0.00 in0.0 mm
02:30 PM 84.7°F29.3°C 59.1°F15.1°C 42% Calm Calm -- 30.06 in1017.9 mb - 0.00 in0.0 mm 0.00 in0.0 mm
02:40 PM 84.4°F29.1°C 59.4°F15.2°C 43% Calm Calm -- 30.06 in1017.9 mb - 0.00 in0.0 mm 0.00 in0.0 mm
02:50 PM 83.6°F28.7°C 58.1°F14.5°C 42% Calm Calm -- 30.05 in1017.6 mb - 0.00 in0.0 mm 0.00 in0.0 mm
03:00 PM 83.1°F28.4°C 59.6°F15.3°C 45% Calm Calm -- 30.05 in1017.6 mb - 0.00 in0.0 mm 0.00 in0.0 mm
03:10 PM 83.1°F28.4°C 58.9°F14.9°C 44% Calm Calm -- 30.05 in1017.6 mb - 0.00 in0.0 mm 0.00 in0.0 mm
03:20 PM 85.1°F29.5°C 59.4°F15.2°C 42% Calm Calm -- 30.04 in1017.3 mb - 0.00 in0.0 mm 0.00 in0.0 mm
03:30 PM 87.4°F30.8°C 58.7°F14.8°C 38% 1.2 mph WNW1.9 kmh WNW -- 30.04 in1017.3 mb - 0.00 in0.0 mm 0.00 in0.0 mm
03:40 PM 87.8°F31.0°C 56.7°F13.7°C 35% 1.2 mph WNW1.9 kmh WNW 4.6 mph7.4 kmh 30.04 in1017.3 mb - 0.00 in0.0 mm 0.00 in0.0 mm
03:50 PM 87.8°F31.0°C 55.9°F13.3°C 34% 3.5 mph SSW5.6 kmh SSW 4.6 mph7.4 kmh 30.04 in1017.3 mb - 0.00 in0.0 mm 0.00 in0.0 mm
04:00 PM 87.4°F30.8°C 57.2°F14.0°C 36% Calm Calm -- 30.03 in1016.9 mb - 0.00 in0.0 mm 0.00 in0.0 mm
04:10 PM 86.9°F30.5°C 59.0°F15.0°C 39% Calm Calm 1.2 mph1.9 kmh 30.03 in1016.9 mb - 0.00 in0.0 mm 0.00 in0.0 mm
04:20 PM 86.6°F30.3°C 58.0°F14.4°C 38% 5.8 mph WSW9.3 kmh WSW 9.2 mph14.8 kmh 30.03 in1016.9 mb - 0.00 in0.0 mm 0.00 in0.0 mm
04:30 PM 86.4°F30.2°C 59.2°F15.1°C 40% 2.3 mph W3.7 kmh W 3.5 mph5.6 kmh 30.03 in1016.9 mb - 0.00 in0.0 mm 0.00 in0.0 mm
04:40 PM 86.4°F30.2°C 59.9°F15.5°C 41% Calm Calm -- 30.02 in1016.6 mb - 0.00 in0.0 mm 0.00 in0.0 mm
04:50 PM 86.1°F30.1°C 59.6°F15.3°C 41% Calm Calm 6.9 mph11.1 kmh 30.02 in1016.6 mb - 0.00 in0.0 mm 0.00 in0.0 mm
05:00 PM 86.0°F30.0°C 58.9°F14.9°C 40% 3.5 mph WNW5.6 kmh WNW 3.5 mph5.6 kmh 30.02 in1016.6 mb - 0.00 in0.0 mm 0.00 in0.0 mm
05:10 PM 85.9°F29.9°C 60.2°F15.7°C 42% Calm Calm -- 30.02 in1016.6 mb - 0.00 in0.0 mm 0.00 in0.0 mm
05:20 PM 85.8°F29.9°C 58.7°F14.8°C 40% 1.2 mph W1.9 kmh W 6.9 mph11.1 kmh 30.02 in1016.6 mb - 0.00 in0.0 mm 0.00 in0.0 mm
05:30 PM 85.1°F29.5°C 58.8°F14.9°C 41% 2.3 mph WNW3.7 kmh WNW 3.5 mph5.6 kmh 30.01 in1016.3 mb - 0.00 in0.0 mm 0.00 in0.0 mm
05:40 PM 84.9°F29.4°C 57.2°F14.0°C 39% 2.3 mph NW3.7 kmh NW 3.5 mph5.6 kmh 30.01 in1016.3 mb - 0.00 in0.0 mm 0.00 in0.0 mm
05:50 PM 84.2°F29.0°C 56.5°F13.6°C 39% 3.5 mph W5.6 kmh W 3.5 mph5.6 kmh 30.00 in1015.9 mb - 0.00 in0.0 mm 0.00 in0.0 mm
06:00 PM 84.1°F28.9°C 57.9°F14.4°C 41% 2.3 mph WSW3.7 kmh WSW 5.8 mph9.3 kmh 30.00 in1015.9 mb - 0.00 in0.0 mm 0.00 in0.0 mm
06:10 PM 83.3°F28.5°C 57.8°F14.3°C 42% 1.2 mph W1.9 kmh W 4.6 mph7.4 kmh 30.00 in1015.9 mb - 0.00 in0.0 mm 0.00 in0.0 mm
06:20 PM 82.2°F27.9°C 58.1°F14.5°C 44% Calm Calm 1.2 mph1.9 kmh 30.01 in1016.3 mb - 0.00 in0.0 mm 0.00 in0.0 mm
06:30 PM 81.4°F27.4°C 58.7°F14.8°C 46% Calm Calm -- 30.01 in1016.3 mb - 0.00 in0.0 mm 0.00 in0.0 mm
06:40 PM 81.0°F27.2°C 60.0°F15.6°C 49% 1.2 mph WNW1.9 kmh WNW 1.2 mph1.9 kmh 30.01 in1016.3 mb - 0.00 in0.0 mm 0.00 in0.0 mm
06:50 PM 80.5°F26.9°C 60.1°F15.6°C 50% Calm Calm -- 30.01 in1016.3 mb - 0.00 in0.0 mm 0.00 in0.0 mm
07:00 PM 80.1°F26.7°C 59.7°F15.4°C 50% Calm Calm -- 30.01 in1016.3 mb - 0.00 in0.0 mm 0.00 in0.0 mm
07:10 PM 79.6°F26.4°C 59.3°F15.2°C 50% 2.3 mph W3.7 kmh W 3.5 mph5.6 kmh 30.01 in1016.3 mb - 0.00 in0.0 mm 0.00 in0.0 mm
07:20 PM 79.2°F26.2°C 60.0°F15.6°C 52% Calm Calm -- 30.01 in1016.3 mb - 0.00 in0.0 mm 0.00 in0.0 mm
07:30 PM 78.6°F25.9°C 59.5°F15.3°C 52% Calm Calm -- 30.01 in1016.3 mb - 0.00 in0.0 mm 0.00 in0.0 mm
07:40 PM 78.2°F25.7°C 59.7°F15.4°C 53% Calm Calm -- 30.02 in1016.6 mb - 0.00 in0.0 mm 0.00 in0.0 mm
07:50 PM 77.8°F25.4°C 59.8°F15.4°C 54% Calm Calm -- 30.02 in1016.6 mb - 0.00 in0.0 mm 0.00 in0.0 mm
08:00 PM 77.3°F25.2°C 60.4°F15.8°C 56% Calm Calm -- 30.02 in1016.6 mb - 0.00 in0.0 mm 0.00 in0.0 mm
08:10 PM 76.9°F24.9°C 60.0°F15.6°C 56% Calm Calm -- 30.03 in1016.9 mb - 0.00 in0.0 mm 0.00 in0.0 mm
08:20 PM 76.5°F24.7°C 60.1°F15.6°C 57% Calm Calm 1.2 mph1.9 kmh 30.03 in1016.9 mb - 0.00 in0.0 mm 0.00 in0.0 mm
08:30 PM 76.0°F24.4°C 59.7°F15.4°C 57% Calm Calm -- 30.03 in1016.9 mb - 0.00 in0.0 mm 0.00 in0.0 mm
08:40 PM 75.6°F24.2°C 59.8°F15.4°C 58% Calm Calm -- 30.04 in1017.3 mb - 0.00 in0.0 mm 0.00 in0.0 mm
08:50 PM 74.9°F23.8°C 60.1°F15.6°C 60% Calm Calm -- 30.03 in1016.9 mb - 0.00 in0.0 mm 0.00 in0.0 mm
09:00 PM 74.4°F23.6°C 60.0°F15.6°C 61% Calm Calm -- 30.04 in1017.3 mb - 0.00 in0.0 mm 0.00 in0.0 mm
09:10 PM 73.9°F23.3°C 59.6°F15.3°C 61% Calm Calm -- 30.03 in1016.9 mb - 0.00 in0.0 mm 0.00 in0.0 mm
09:20 PM 73.4°F23.0°C 60.0°F15.6°C 63% Calm Calm -- 30.03 in1016.9 mb - 0.00 in0.0 mm 0.00 in0.0 mm
09:30 PM 73.0°F22.8°C 59.7°F15.4°C 63% Calm Calm -- 30.02 in1016.6 mb - 0.00 in0.0 mm 0.00 in0.0 mm
09:40 PM 72.9°F22.7°C 60.0°F15.6°C 64% Calm Calm -- 30.02 in1016.6 mb - 0.00 in0.0 mm 0.00 in0.0 mm
09:50 PM 72.8°F22.7°C 60.4°F15.8°C 65% Calm Calm -- 30.02 in1016.6 mb - 0.00 in0.0 mm 0.00 in0.0 mm
10:00 PM 72.7°F22.6°C 60.7°F15.9°C 66% Calm Calm -- 30.02 in1016.6 mb - 0.00 in0.0 mm 0.00 in0.0 mm
10:10 PM 72.7°F22.6°C 60.7°F15.9°C 66% Calm Calm -- 30.02 in1016.6 mb - 0.00 in0.0 mm 0.00 in0.0 mm
10:20 PM 72.6°F22.6°C 61.0°F16.1°C 67% Calm Calm -- 30.02 in1016.6 mb - 0.00 in0.0 mm 0.00 in0.0 mm
10:30 PM 72.4°F22.4°C 60.8°F16.0°C 67% Calm Calm -- 30.02 in1016.6 mb - 0.00 in0.0 mm 0.00 in0.0 mm
10:40 PM 72.2°F22.3°C 60.6°F15.9°C 67% Calm Calm -- 30.02 in1016.6 mb - 0.00 in0.0 mm 0.00 in0.0 mm
10:50 PM 72.1°F22.3°C 60.9°F16.1°C 68% Calm Calm -- 30.02 in1016.6 mb - 0.00 in0.0 mm 0.00 in0.0 mm
11:00 PM 71.7°F22.1°C 61.0°F16.1°C 69% Calm Calm -- 30.02 in1016.6 mb - 0.00 in0.0 mm 0.00 in0.0 mm
11:10 PM 71.3°F21.8°C 61.0°F16.1°C 70% Calm Calm -- 30.02 in1016.6 mb - 0.00 in0.0 mm 0.00 in0.0 mm
11:20 PM 71.0°F21.7°C 60.7°F15.9°C 70% Calm Calm -- 30.02 in1016.6 mb - 0.00 in0.0 mm 0.00 in0.0 mm
11:30 PM 70.9°F21.6°C 61.0°F16.1°C 71% Calm Calm -- 30.02 in1016.6 mb - 0.00 in0.0 mm 0.00 in0.0 mm
11:40 PM 70.6°F21.4°C 60.7°F15.9°C 71% Calm Calm -- 30.02 in1016.6 mb - 0.00 in0.0 mm 0.00 in0.0 mm
11:50 PM 70.2°F21.2°C 60.7°F15.9°C 72% Calm Calm -- 30.02 in1016.6 mb - 0.00 in0.0 mm 0.00 in0.0 mm